Time,TemperatureF,DewpointF,PressureIn,WindDirection,WindDirectionDegrees,WindSpeedMPH,WindSpeedGustMPH,Humidity,HourlyPrecipIn,Conditions,Clouds,dailyrainin,SoftwareType,DateUTC
2013-02-16 00:02:00,39.0,34.9,30.24,West,262,1.0,5.0,85,0.00,RA,FEW,0.00,WeatherDisplay:10.37,2013-02-16 08:02:00,
2013-02-16 00:17:00,41.4,37.2,30.24,SW,235,1.0,6.0,85,0.00,OVC,FEW,0.00,WeatherDisplay:10.37,2013-02-16 08:17:00,
2013-02-16 00:32:00,42.6,38.4,30.24,SW,220,1.0,6.0,85,0.00,OVC,FEW,0.00,WeatherDisplay:10.37,2013-02-16 08:32:00,
2013-02-16 00:47:00,43.5,39.3,30.24,SW,222,0.0,4.0,85,0.00,OVC,FEW,0.00,WeatherDisplay:10.37,2013-02-16 08:47:00,
2013-02-16 01:02:00,44.2,40.0,30.25,SW,232,0.0,4.0,85,0.00,OVC,FEW,0.00,WeatherDisplay:10.37,2013-02-16 09:02:00,
2013-02-16 01:17:00,44.4,40.2,30.24,SW,229,0.0,5.0,85,0.00,OVC,FEW,0.00,WeatherDisplay:10.37,2013-02-16 09:17:00,
2013-02-16 01:32:00,45.0,40.7,30.24,WSW,238,0.0,4.0,85,0.00,OVC,FEW,0.00,WeatherDisplay:10.37,2013-02-16 09:32:00,
2013-02-16 01:47:00,45.0,40.7,30.24,SW,227,0.0,2.0,85,0.00,OVC,FEW,0.00,WeatherDisplay:10.37,2013-02-16 09:47:00,
2013-02-16 02:02:00,45.1,40.9,30.24,West,269,0.0,2.0,85,0.00,OVC,FEW,0.00,WeatherDisplay:10.37,2013-02-16 10:02:00,
2013-02-16 02:17:00,45.1,40.9,30.24,West,279,0.0,2.0,85,0.00,OVC,FEW,0.00,WeatherDisplay:10.37,2013-02-16 10:17:00,
2013-02-16 02:32:00,45.1,40.9,30.24,WNW,296,0.0,2.0,85,0.00,OVC,FEW,0.00,WeatherDisplay:10.37,2013-02-16 10:32:00,
2013-02-16 02:47:00,45.1,40.9,30.24,West,271,0.0,2.0,85,0.00,OVC,FEW,0.00,WeatherDisplay:10.37,2013-02-16 10:47:00,
2013-02-16 03:02:00,45.1,40.9,30.24,West,273,0.0,0.0,85,0.00,-RA,FEW,0.00,WeatherDisplay:10.37,2013-02-16 11:02:00,
2013-02-16 03:17:00,45.1,40.9,30.24,West,278,0.0,2.0,85,0.00,-RA,FEW,0.00,WeatherDisplay:10.37,2013-02-16 11:17:00,
2013-02-16 03:32:00,45.1,40.9,30.25,West,274,0.0,1.0,85,0.00,-RA,FEW,0.00,WeatherDisplay:10.37,2013-02-16 11:32:00,
2013-02-16 03:47:00,45.1,40.9,30.24,WNW,299,0.0,2.0,85,0.00,-RA,FEW,0.00,WeatherDisplay:10.37,2013-02-16 11:47:00,
2013-02-16 04:02:00,45.1,40.9,30.24,West,273,0.0,2.0,85,0.02,OVC,FEW,0.02,WeatherDisplay:10.37,2013-02-16 12:02:00,
2013-02-16 04:17:00,45.0,40.8,30.24,West,264,1.0,5.0,85,0.00,OVC,FEW,0.02,WeatherDisplay:10.37,2013-02-16 12:17:00,
2013-02-16 04:32:00,45.1,40.9,30.24,WSW,248,1.0,4.0,85,0.00,OVC,FEW,0.02,WeatherDisplay:10.37,2013-02-16 12:32:00,
2013-02-16 04:47:00,45.0,40.7,30.24,SW,220,1.0,4.0,85,0.00,OVC,FEW,0.02,WeatherDisplay:10.37,2013-02-16 12:47:00,
2013-02-16 05:02:00,44.8,40.6,30.24,WSW,250,0.0,5.0,85,0.00,OVC,FEW,0.02,WeatherDisplay:10.37,2013-02-16 13:02:00,
2013-02-16 05:17:00,44.8,40.8,30.25,WSW,245,0.0,3.0,86,0.00,OVC,FEW,0.02,WeatherDisplay:10.37,2013-02-16 13:17:00,
2013-02-16 05:32:00,44.6,40.7,30.25,SW,216,1.0,3.0,86,0.00,OVC,FEW,0.02,WeatherDisplay:10.37,2013-02-16 13:32:00,
2013-02-16 05:47:00,44.6,40.7,30.25,SW,226,0.0,5.0,86,0.00,OVC,FEW,0.02,WeatherDisplay:10.37,2013-02-16 13:47:00,
2013-02-16 06:02:00,44.6,40.7,30.26,SW,224,0.0,5.0,86,0.00,OVC,FEW,0.02,WeatherDisplay:10.37,2013-02-16 14:02:00,
2013-02-16 06:17:00,44.5,40.6,30.25,SSW,197,0.0,5.0,86,0.00,OVC,FEW,0.02,WeatherDisplay:10.37,2013-02-16 14:17:00,
2013-02-16 06:32:00,44.4,40.5,30.25,SSW,212,1.0,6.0,86,0.00,OVC,FEW,0.02,WeatherDisplay:10.37,2013-02-16 14:32:00,
2013-02-16 06:47:00,44.4,40.5,30.24,SSW,204,0.0,4.0,86,0.00,OVC,FEW,0.02,WeatherDisplay:10.37,2013-02-16 14:47:00,
2013-02-16 07:02:00,44.4,40.5,30.25,SSW,203,0.0,8.0,86,0.00,CLR,FEW,0.02,WeatherDisplay:10.37,2013-02-16 15:02:00,
2013-02-16 07:17:00,44.6,40.7,30.25,SSW,208,0.0,5.0,86,0.00,CLR,FEW,0.02,WeatherDisplay:10.37,2013-02-16 15:17:00,
2013-02-16 07:32:00,44.6,40.7,30.24,SSW,208,1.0,6.0,86,0.00,CLR,FEW,0.02,WeatherDisplay:10.37,2013-02-16 15:32:00,
2013-02-16 07:47:00,44.4,40.5,30.25,SSW,212,0.0,4.0,86,0.00,CLR,FEW,0.02,WeatherDisplay:10.37,2013-02-16 15:47:00,
2013-02-16 08:02:00,44.5,40.6,30.25,SW,220,0.0,4.0,86,0.00,-RA,FEW,0.02,WeatherDisplay:10.37,2013-02-16 16:02:00,
2013-02-16 08:17:00,45.0,41.0,30.26,SW,235,1.0,4.0,86,0.00,-RA,FEW,0.02,WeatherDisplay:10.37,2013-02-16 16:17:00,
2013-02-16 08:32:00,45.3,41.4,30.26,SSW,194,2.0,5.0,86,0.00,-RA,FEW,0.02,WeatherDisplay:10.37,2013-02-16 16:32:00,
2013-02-16 08:47:00,45.7,41.7,30.26,SW,215,1.0,4.0,86,0.00,-RA,FEW,0.02,WeatherDisplay:10.37,2013-02-16 16:47:00,
2013-02-16 09:02:00,46.1,42.2,30.27,SW,224,1.0,5.0,86,0.02,-RA,FEW,0.04,WeatherDisplay:10.37,2013-02-16 17:02:00,
2013-02-16 09:17:00,46.2,42.3,30.26,SW,216,0.0,4.0,86,0.00,-RA,FEW,0.04,WeatherDisplay:10.37,2013-02-16 17:17:00,
2013-02-16 09:32:00,46.2,42.3,30.26,SW,216,1.0,3.0,86,0.02,-RA,FEW,0.07,WeatherDisplay:10.37,2013-02-16 17:32:00,
2013-02-16 09:47:00,46.3,42.4,30.26,SW,232,0.0,2.0,86,0.00,-RA,FEW,0.07,WeatherDisplay:10.37,2013-02-16 17:47:00,
2013-02-16 10:02:00,46.6,42.6,30.26,SW,227,1.0,5.0,86,0.00,-RA,FEW,0.07,WeatherDisplay:10.37,2013-02-16 18:02:00,
2013-02-16 10:17:00,47.5,43.5,30.26,SW,223,0.0,4.0,86,0.00,-RA,FEW,0.07,WeatherDisplay:10.37,2013-02-16 18:17:00,
2013-02-16 10:32:00,47.0,43.0,30.27,West,277,3.0,13.0,86,0.00,-RA,FEW,0.07,WeatherDisplay:10.37,2013-02-16 18:32:00,
2013-02-16 10:47:00,47.1,43.1,30.27,SW,227,1.0,6.0,86,0.00,-RA,FEW,0.07,WeatherDisplay:10.37,2013-02-16 18:47:00,
2013-02-16 11:02:00,48.1,43.8,30.27,SW,217,0.0,3.0,85,0.00,OVC,FEW,0.07,WeatherDisplay:10.37,2013-02-16 19:02:00,
2013-02-16 11:17:00,48.7,44.7,30.27,SSW,198,0.0,4.0,86,0.00,OVC,FEW,0.07,WeatherDisplay:10.37,2013-02-16 19:17:00,
2013-02-16 11:32:00,49.3,45.0,30.26,WSW,242,1.0,5.0,85,0.00,OVC,FEW,0.07,WeatherDisplay:10.37,2013-02-16 19:32:00,
2013-02-16 11:47:00,49.6,45.3,30.26,SW,226,1.0,5.0,85,0.00,OVC,FEW,0.07,WeatherDisplay:10.37,2013-02-16 19:47:00,
2013-02-16 12:02:00,49.3,45.0,30.26,WSW,241,3.0,11.0,85,0.00,BKN,FEW,0.07,WeatherDisplay:10.37,2013-02-16 20:02:00,
2013-02-16 12:17:00,49.3,44.6,30.25,WSW,242,2.0,9.0,84,0.00,BKN,FEW,0.07,WeatherDisplay:10.37,2013-02-16 20:17:00,
2013-02-16 12:32:00,48.7,43.5,30.26,WSW,249,2.0,8.0,82,0.00,BKN,FEW,0.07,WeatherDisplay:10.37,2013-02-16 20:32:00,
2013-02-16 12:47:00,49.8,44.5,30.25,WSW,237,5.0,11.0,82,0.00,BKN,FEW,0.07,WeatherDisplay:10.37,2013-02-16 20:47:00,
2013-02-16 13:02:00,49.8,43.6,30.24,West,264,3.0,11.0,79,0.00,BKN,FEW,0.07,WeatherDisplay:10.37,2013-02-16 21:02:00,
2013-02-16 13:17:00,50.4,44.1,30.24,SW,236,1.0,15.0,79,0.00,BKN,FEW,0.07,WeatherDisplay:10.37,2013-02-16 21:17:00,
2013-02-16 13:32:00,49.9,43.3,30.24,West,280,1.0,8.0,78,0.00,BKN,FEW,0.07,WeatherDisplay:10.37,2013-02-16 21:32:00,
2013-02-16 13:47:00,50.2,42.9,30.24,West,275,1.0,13.0,76,0.00,BKN,FEW,0.07,WeatherDisplay:10.37,2013-02-16 21:47:00,
2013-02-16 14:02:00,49.1,41.9,30.24,WSW,252,5.0,15.0,76,0.00,BKN,FEW,0.07,WeatherDisplay:10.37,2013-02-16 22:02:00,
2013-02-16 14:17:00,49.6,42.4,30.24,WSW,244,5.0,11.0,76,0.00,BKN,FEW,0.07,WeatherDisplay:10.37,2013-02-16 22:17:00,
2013-02-16 14:32:00,49.1,41.9,30.24,WSW,240,2.0,11.0,76,0.00,BKN,FEW,0.07,WeatherDisplay:10.37,2013-02-16 22:32:00,
2013-02-16 14:47:00,48.7,41.5,30.25,WSW,258,3.0,9.0,76,0.00,BKN,FEW,0.07,WeatherDisplay:10.37,2013-02-16 22:47:00,
2013-02-16 15:02:00,48.4,41.2,30.24,West,263,3.0,13.0,76,0.00,OVC,FEW,0.07,WeatherDisplay:10.37,2013-02-16 23:02:00,
2013-02-16 15:17:00,48.3,40.8,30.25,West,272,8.0,21.0,75,0.00,OVC,FEW,0.07,WeatherDisplay:10.37,2013-02-16 23:17:00,
2013-02-16 15:32:00,47.7,40.8,30.25,West,264,3.0,10.0,77,0.00,OVC,FEW,0.07,WeatherDisplay:10.37,2013-02-16 23:32:00,
2013-02-16 15:47:00,47.0,40.5,30.26,WSW,256,5.0,8.0,78,0.00,OVC,FEW,0.07,WeatherDisplay:10.37,2013-02-16 23:47:00,
2013-02-16 16:02:00,46.6,40.7,30.26,West,259,3.0,8.0,80,0.00,OVC,FEW,0.07,WeatherDisplay:10.37,2013-02-17 00:02:00,
2013-02-16 16:17:00,46.6,40.4,30.26,WSW,254,3.0,8.0,79,0.00,OVC,FEW,0.07,WeatherDisplay:10.37,2013-02-17 00:17:00,
2013-02-16 16:32:00,46.6,39.8,30.26,West,272,1.0,8.0,77,0.00,OVC,FEW,0.07,WeatherDisplay:10.37,2013-02-17 00:32:00,
2013-02-16 16:47:00,46.2,39.1,30.26,SW,233,1.0,10.0,76,0.00,OVC,FEW,0.07,WeatherDisplay:10.37,2013-02-17 00:47:00,
2013-02-16 17:02:00,46.0,39.2,30.25,SW,220,2.0,7.0,77,0.00,OVC,FEW,0.07,WeatherDisplay:10.37,2013-02-17 01:02:00,
2013-02-16 17:17:00,45.5,38.7,30.25,SW,219,2.0,6.0,77,0.00,OVC,FEW,0.07,WeatherDisplay:10.37,2013-02-17 01:17:00,
2013-02-16 17:32:00,45.0,38.5,30.26,West,265,2.0,7.0,78,0.02,RA,FEW,0.09,WeatherDisplay:10.37,2013-02-17 01:32:00,
2013-02-16 17:47:00,44.2,38.1,30.25,SW,220,1.0,7.0,79,0.00,OVC,FEW,0.09,WeatherDisplay:10.37,2013-02-17 01:47:00,
2013-02-16 18:02:00,43.5,37.4,30.25,SSW,212,1.0,4.0,79,0.00,OVC,FEW,0.09,WeatherDisplay:10.37,2013-02-17 02:02:00,
2013-02-16 18:17:00,43.3,37.6,30.26,SW,215,1.0,3.0,80,0.02,RA,FEW,0.11,WeatherDisplay:10.37,2013-02-17 02:17:00,
2013-02-16 18:32:00,43.2,37.7,30.26,West,260,0.0,5.0,81,0.00,OVC,FEW,0.11,WeatherDisplay:10.37,2013-02-17 02:32:00,
2013-02-16 18:47:00,43.0,37.5,30.27,SW,233,1.0,5.0,81,0.00,OVC,FEW,0.11,WeatherDisplay:10.37,2013-02-17 02:47:00,
2013-02-16 19:02:00,42.6,37.5,30.26,SW,220,0.0,4.0,82,0.00,OVC,FEW,0.11,WeatherDisplay:10.37,2013-02-17 03:02:00,
2013-02-16 19:17:00,42.6,37.5,30.27,SW,232,1.0,4.0,82,0.02,RA,FEW,0.13,WeatherDisplay:10.37,2013-02-17 03:17:00,
2013-02-16 19:32:00,42.4,37.6,30.27,SSW,200,0.0,5.0,83,0.00,OVC,FEW,0.13,WeatherDisplay:10.37,2013-02-17 03:32:00,
2013-02-16 19:47:00,42.4,37.6,30.27,SSW,202,0.0,3.0,83,0.00,OVC,FEW,0.13,WeatherDisplay:10.37,2013-02-17 03:47:00,
2013-02-16 20:02:00,42.3,37.5,30.27,SW,217,0.0,4.0,83,0.00,SCT,FEW,0.13,WeatherDisplay:10.37,2013-02-17 04:02:00,
2013-02-16 20:17:00,41.9,37.1,30.27,SSW,194,1.0,4.0,83,0.00,SCT,FEW,0.13,WeatherDisplay:10.37,2013-02-17 04:17:00,
2013-02-16 20:32:00,41.7,37.2,30.27,WSW,245,1.0,12.0,84,0.02,RA,FEW,0.15,WeatherDisplay:10.37,2013-02-17 04:32:00,
2013-02-16 20:47:00,41.7,37.2,30.27,South,189,0.0,9.0,84,0.00,SCT,FEW,0.15,WeatherDisplay:10.37,2013-02-17 04:47:00,
2013-02-16 21:02:00,41.2,36.4,30.27,South,181,0.0,2.0,83,0.00,SCT,FEW,0.15,WeatherDisplay:10.37,2013-02-17 05:02:00,
2013-02-16 21:17:00,40.2,35.4,30.27,SSW,213,0.0,3.0,83,0.00,SCT,FEW,0.15,WeatherDisplay:10.37,2013-02-17 05:17:00,
2013-02-16 21:32:00,39.9,35.5,30.28,SW,230,1.0,7.0,84,0.00,SCT,FEW,0.15,WeatherDisplay:10.37,2013-02-17 05:32:00,
2013-02-16 21:47:00,40.3,35.8,30.28,SSW,197,0.0,3.0,84,0.00,SCT,FEW,0.15,WeatherDisplay:10.37,2013-02-17 05:47:00,
2013-02-16 22:02:00,40.1,35.7,30.28,South,182,0.0,4.0,84,0.00,CLR,FEW,0.15,WeatherDisplay:10.37,2013-02-17 06:02:00,
2013-02-16 22:17:00,39.4,34.9,30.29,South,170,0.0,3.0,84,0.00,CLR,FEW,0.15,WeatherDisplay:10.37,2013-02-17 06:17:00,
2013-02-16 22:32:00,38.7,34.3,30.28,South,181,0.0,3.0,84,0.00,CLR,FEW,0.15,WeatherDisplay:10.37,2013-02-17 06:32:00,
2013-02-16 22:47:00,37.9,33.5,30.29,South,185,0.0,2.0,84,0.00,CLR,FEW,0.15,WeatherDisplay:10.37,2013-02-17 06:47:00,
2013-02-16 23:02:00,37.4,33.0,30.29,SW,218,0.0,2.0,84,0.00,-RA,FEW,0.15,WeatherDisplay:10.37,2013-02-17 07:02:00,
2013-02-16 23:17:00,37.6,33.2,30.29,SSW,200,0.0,1.0,84,0.00,-RA,FEW,0.15,WeatherDisplay:10.37,2013-02-17 07:17:00,
2013-02-16 23:32:00,37.9,33.5,30.29,South,179,1.0,4.0,84,0.00,-RA,FEW,0.15,WeatherDisplay:10.37,2013-02-17 07:32:00,
2013-02-16 23:47:00,37.8,33.4,30.29,South,170,0.0,3.0,84,0.00,-RA,FEW,0.15,WeatherDisplay:10.37,2013-02-17 07:47:00,